createdAt,value
2019-05-29T16:19:19.329Z,16.00
2019-05-29T16:21:51.120Z,15.80
2019-05-29T16:24:23.048Z,16.00
2019-05-29T16:27:08.049Z,15.90
2019-05-29T16:29:34.214Z,15.80
2019-05-29T16:32:06.389Z,15.70
2019-05-29T16:34:40.028Z,15.70
2019-05-29T16:37:13.628Z,15.50
2019-05-29T16:39:49.198Z,15.30
2019-05-29T16:42:20.566Z,15.40
2019-05-29T16:44:52.035Z,15.30
2019-05-29T16:47:24.544Z,15.20
2019-05-29T16:49:58.339Z,15.20
2019-05-29T16:52:29.842Z,14.80
2019-05-29T16:55:01.278Z,14.60
2019-05-29T16:57:33.425Z,14.50
2019-05-29T17:00:28.093Z,14.50
2019-05-29T17:03:02.495Z,14.30
2019-05-29T17:05:40.145Z,14.20
2019-05-29T17:08:18.041Z,14.00
2019-05-29T17:10:55.312Z,13.90
2019-05-29T17:13:29.426Z,13.80
2019-05-29T17:16:05.273Z,13.70
2019-05-29T17:18:36.510Z,13.80
2019-05-29T17:21:09.622Z,13.70
2019-05-29T17:24:09.739Z,13.70
2019-05-29T17:27:10.200Z,13.60
2019-05-29T17:30:09.851Z,13.60
2019-05-29T17:32:46.218Z,13.60
2019-05-29T17:35:35.749Z,13.60
2019-05-29T17:38:34.940Z,13.50
2019-05-29T17:41:34.238Z,13.40
2019-05-29T17:44:30.832Z,13.40
2019-05-29T17:47:25.755Z,13.30
2019-05-29T17:50:23.309Z,13.30
2019-05-29T17:53:22.453Z,13.20
2019-05-29T17:56:32.018Z,13.20
2019-05-29T17:59:13.796Z,13.10
2019-05-29T18:02:11.892Z,13.00
2019-05-29T18:05:09.631Z,13.00
2019-05-29T18:08:03.633Z,12.90
2019-05-29T18:10:57.284Z,12.90
2019-05-29T18:13:50.678Z,12.90
2019-05-29T18:16:42.091Z,12.80
2019-05-29T18:19:36.765Z,12.80
2019-05-29T18:22:46.577Z,12.80
2019-05-29T18:25:24.009Z,12.70
2019-05-29T18:28:24.032Z,12.70
2019-05-29T18:31:13.331Z,12.70
2019-05-29T18:34:13.920Z,12.70
2019-05-29T18:37:05.871Z,12.60
2019-05-29T18:40:00.708Z,12.50
2019-05-29T18:42:53.732Z,12.50
2019-05-29T18:45:48.243Z,12.40
2019-05-29T18:48:45.784Z,12.40
2019-05-29T18:51:36.864Z,12.40
2019-05-29T18:54:35.613Z,12.40
2019-05-29T18:57:33.132Z,12.40
2019-05-29T19:00:33.082Z,12.40
2019-05-29T19:03:27.527Z,12.40
2019-05-29T19:06:25.555Z,12.30
2019-05-29T19:09:19.228Z,12.40
2019-05-29T19:12:23.725Z,12.30
2019-05-29T19:15:32.115Z,12.20
2019-05-29T19:18:32.392Z,12.30
2019-05-29T19:21:38.758Z,12.20
2019-05-29T19:24:35.568Z,12.30
2019-05-29T19:27:37.668Z,12.30
2019-05-29T19:30:29.567Z,12.30
2019-05-29T19:33:31.347Z,12.30
2019-05-29T19:36:13.754Z,12.30
2019-05-29T19:39:09.913Z,12.30
2019-05-29T19:42:07.832Z,12.20
2019-05-29T19:45:09.912Z,12.10
2019-05-29T19:48:12.464Z,12.10
2019-05-29T19:51:10.589Z,12.10
2019-05-29T19:54:00.232Z,12.10
2019-05-29T19:56:59.889Z,12.10
2019-05-29T19:59:49.804Z,12.10
2019-05-29T20:02:51.659Z,12.00
2019-05-29T20:05:59.796Z,12.10
2019-05-29T20:09:04.954Z,12.10
2019-05-29T20:12:07.797Z,12.10
2019-05-29T20:15:06.843Z,12.00
2019-05-29T20:18:08.190Z,12.00
2019-05-29T20:21:08.133Z,12.00
2019-05-29T20:24:02.545Z,12.00
2019-05-29T20:26:54.972Z,12.00
2019-05-29T20:29:49.446Z,12.00
2019-05-29T20:32:23.007Z,12.10
2019-05-29T20:34:55.734Z,12.10
2019-05-29T20:37:34.060Z,12.00
2019-05-29T20:40:14.132Z,12.10
2019-05-29T20:42:49.983Z,12.10
2019-05-29T20:45:21.957Z,12.10
2019-05-29T20:47:56.510Z,12.10
2019-05-29T20:50:44.772Z,12.10
2019-05-29T20:53:21.147Z,12.00
2019-05-29T20:56:39.803Z,12.00
2019-05-29T20:59:18.163Z,12.00
2019-05-29T21:01:51.532Z,12.00
2019-05-29T21:05:02.612Z,11.90
2019-05-29T21:08:36.846Z,11.80
2019-05-29T21:11:56.382Z,11.70
2019-05-29T21:15:15.555Z,11.70
2019-05-29T21:27:35.083Z,11.60
2019-05-29T21:30:17.583Z,11.60
2019-05-29T21:33:17.599Z,11.60
2019-05-29T21:35:51.509Z,11.60
2019-05-29T21:38:29.188Z,11.60
2019-05-29T21:41:00.722Z,11.60
2019-05-29T21:43:36.952Z,11.60
2019-05-29T21:46:11.448Z,11.50
2019-05-29T21:48:51.393Z,11.60
2019-05-29T21:52:12.712Z,11.60
2019-05-29T21:54:45.955Z,11.50
2019-05-29T21:57:34.387Z,11.50
2019-05-29T22:00:30.164Z,11.50
2019-05-29T22:03:36.339Z,11.50
2019-05-29T22:06:13.974Z,11.50
2019-05-29T22:08:52.877Z,11.60
2019-05-29T22:12:29.027Z,11.60
2019-05-29T22:15:34.993Z,11.60
2019-05-29T22:18:12.725Z,11.60
2019-05-29T22:20:45.174Z,11.50
2019-05-29T22:23:16.570Z,11.50
2019-05-29T22:26:26.912Z,11.50
2019-05-29T22:29:15.673Z,11.50
2019-05-29T22:32:21.225Z,11.50
2019-05-29T22:35:39.139Z,11.50
2019-05-29T22:38:37.356Z,11.50
2019-05-29T22:41:15.737Z,11.50
2019-05-29T22:43:47.763Z,11.50
2019-05-29T22:46:20.178Z,11.50
2019-05-29T22:49:29.886Z,11.50
2019-05-29T22:52:11.012Z,11.50
2019-05-29T22:55:09.617Z,11.50
2019-05-29T22:58:22.273Z,11.50
2019-05-29T23:01:17.259Z,11.50
2019-05-29T23:04:38.675Z,11.50
2019-05-29T23:07:58.720Z,11.40
2019-05-29T23:10:41.940Z,11.40
2019-05-29T23:13:14.870Z,11.40
2019-05-29T23:15:47.767Z,11.40
2019-05-29T23:18:24.827Z,11.40
2019-05-29T23:21:31.038Z,11.40
2019-05-29T23:24:46.775Z,11.40
2019-05-29T23:28:11.441Z,11.40
2019-05-29T23:31:36.101Z,11.40
2019-05-29T23:34:55.039Z,11.40
2019-05-29T23:38:10.772Z,11.40
2019-05-29T23:41:12.462Z,11.40
2019-05-29T23:44:18.150Z,11.40
2019-05-29T23:47:09.290Z,11.30
2019-05-29T23:50:26.551Z,11.40
2019-05-29T23:53:19.075Z,11.40
2019-05-29T23:55:54.161Z,11.40
2019-05-29T23:58:27.143Z,11.40
